aviador You're here:

SCVM Decoded Metar

in
Report Time2018-05-21 20:00:00
UTC Time2018-05-21 20:15:21
Flight Rules vfr VFR
Wind330° at 08 kt
W.Decomp.*RWY 05: 1.4 kt HW 7.9 kt LCW
W.Rank330° ranks 1
Current wind is above 330° avg. (6.9)
Visibility9999 m
Phenomena:N/A
Clouds:N/A
Expected CloudBase > 2,400 ft AGL from Temp-Dew spread
CeilingNone
Temp17°C
Dew Point11°C (68% RH)
AAT14.5°C
QNH1017 hPa
Raw Report
METAR SCVM 212000Z 33008KT CAVOK 17/11 Q1017=

Extra information for SCVM:More info

Social comments